Time;durP1;ratioP1;P1;durP2;ratioP2;P2;SDS_P1;SDS_P2;PMS_P1;PMS_P2;Temp;Humidity;BMP_temperature;BMP_pressure;BME280_temperature;BME280_humidity;BME280_pressure;Samples;Min_cycle;Max_cycle;Signal;HPM_P1;HPM_P2
2022/11/10 00:02:01;;;;;;;14.87;2.07;;;;;;;7.45;100.00;101611.28;5068515;28;20035;-83
2022/11/10 00:04:26;;;;;;;27.17;3.10;;;;;;;7.40;100.00;101615.41;5069841;28;20572;-83
2022/11/10 00:06:51;;;;;;;22.33;2.77;;;;;;;7.40;100.00;101615.41;5070157;28;20028;-83
2022/11/10 00:09:17;;;;;;;11.90;2.37;;;;;;;7.40;100.00;101604.75;5070527;28;20037;-83
2022/11/10 00:11:42;;;;;;;13.43;2.30;;;;;;;7.42;100.00;101609.84;5068007;28;20029;-83
2022/11/10 00:17:03;;;;;;;20.05;2.88;;;;;;;7.45;100.00;101614.75;5070682;28;20039;-83
2022/11/10 00:19:34;;;;;;;23.30;2.90;;;;;;;7.46;100.00;101611.03;5070396;28;20081;-83
2022/11/10 00:22:00;;;;;;;20.13;2.50;;;;;;;7.47;100.00;101610.00;5069011;28;20475;-83
2022/11/10 00:24:27;;;;;;;11.43;2.77;;;;;;;7.50;100.00;101614.91;5051573;28;20858;-83
2022/11/10 00:26:52;;;;;;;14.75;2.67;;;;;;;7.46;100.00;101605.72;5069534;28;20073;-83
2022/11/10 00:29:18;;;;;;;20.23;2.50;;;;;;;7.46;100.00;101608.38;5069975;28;20111;-83
2022/11/10 00:31:43;;;;;;;17.90;2.40;;;;;;;7.42;100.00;101610.66;5069401;28;20033;-83
2022/11/10 00:34:14;;;;;;;17.97;2.60;;;;;;;7.44;100.00;101621.09;5069363;28;20013;-83
2022/11/10 00:36:39;;;;;;;16.60;2.85;;;;;;;7.39;100.00;101621.75;5070225;28;20024;-83
2022/11/10 00:39:05;;;;;;;22.00;2.97;;;;;;;7.45;100.00;101628.06;5069525;28;21024;-83
2022/11/10 00:41:30;;;;;;;24.60;2.97;;;;;;;7.45;100.00;101635.28;5068465;28;20040;-83
2022/11/10 00:43:56;;;;;;;18.07;2.63;;;;;;;7.43;100.00;101641.63;5068335;28;20448;-83
2022/11/10 00:46:21;;;;;;;23.08;3.00;;;;;;;7.46;100.00;101640.38;5072518;28;20445;-83
2022/11/10 00:48:47;;;;;;;21.20;2.60;;;;;;;7.45;100.00;101644.06;5073855;28;20973;-83
2022/11/10 00:51:21;;;;;;;19.23;3.00;;;;;;;7.32;100.00;101636.19;5073001;28;20032;-83
2022/11/10 00:53:46;;;;;;;18.60;2.80;;;;;;;7.35;100.00;101647.22;5072709;28;20043;-83
2022/11/10 00:56:16;;;;;;;16.25;2.47;;;;;;;7.36;100.00;101654.19;5073465;28;20381;-83
2022/11/10 00:58:42;;;;;;;15.00;2.60;;;;;;;7.38;100.00;101651.31;5054708;28;20043;-83
2022/11/10 01:01:08;;;;;;;17.57;2.57;;;;;;;7.36;100.00;101648.06;5072109;28;20024;-83
2022/11/10 01:03:34;;;;;;;19.20;2.70;;;;;;;7.34;100.00;101642.13;5073156;28;20029;-83
2022/11/10 01:06:12;;;;;;;19.55;2.85;;;;;;;7.35;100.00;101652.56;5072502;28;20116;-83
2022/11/10 01:08:38;;;;;;;15.93;2.30;;;;;;;7.35;100.00;101641.88;5072390;28;20033;-83
2022/11/10 01:11:07;;;;;;;21.88;2.35;;;;;;;7.42;100.00;101652.50;5053634;28;20024;-83
2022/11/10 01:13:33;;;;;;;18.55;2.60;;;;;;;7.40;100.00;101650.06;5072787;28;20036;-83
2022/11/10 01:16:22;;;;;;;20.87;2.97;;;;;;;7.38;100.00;101654.00;5071142;28;20392;-83
2022/11/10 01:18:52;;;;;;;18.25;3.22;;;;;;;7.31;100.00;101659.34;5052852;28;20037;-83
2022/11/10 01:21:19;;;;;;;21.23;3.00;;;;;;;7.27;100.00;101664.28;5052332;28;20112;-83
2022/11/10 01:23:45;;;;;;;14.20;2.30;;;;;;;7.19;100.00;101658.41;5053166;28;20033;-83
2022/11/10 01:26:11;;;;;;;16.45;2.38;;;;;;;7.18;100.00;101678.94;5072927;28;20024;-83
2022/11/10 01:28:37;;;;;;;16.50;2.53;;;;;;;7.18;100.00;101676.25;5072931;28;20133;-84
2022/11/10 01:31:05;;;;;;;18.83;2.40;;;;;;;7.15;100.00;101691.84;5071478;28;20467;-83
2022/11/10 01:33:31;;;;;;;15.60;2.30;;;;;;;7.12;100.00;101693.91;5071565;28;20536;-83
2022/11/10 01:35:57;;;;;;;17.60;2.65;;;;;;;7.12;100.00;101698.44;5071126;28;20030;-83
2022/11/10 01:38:25;;;;;;;19.87;2.53;;;;;;;7.04;100.00;101685.34;5072429;28;20489;-83
2022/11/10 01:40:51;;;;;;;23.48;2.90;;;;;;;7.09;100.00;101691.69;5054194;28;20059;-83
2022/11/10 01:43:18;;;;;;;28.07;2.93;;;;;;;7.09;100.00;101698.84;5072506;28;20052;-83
2022/11/10 01:45:59;;;;;;;21.00;2.42;;;;;;;7.06;100.00;101689.44;5053718;28;20020;-83
2022/11/10 01:48:45;;;;;;;14.60;2.30;;;;;;;7.10;100.00;101696.00;5070409;28;20056;-83
2022/11/10 01:51:23;;;;;;;13.18;2.53;;;;;;;7.10;100.00;101693.31;5071830;28;20467;-83
2022/11/10 01:53:54;;;;;;;25.00;2.38;;;;;;;7.08;100.00;101684.72;5070960;28;20021;-83
2022/11/10 01:56:21;;;;;;;15.45;2.38;;;;;;;7.19;100.00;101685.06;5072101;28;20024;-83
2022/11/10 01:58:51;;;;;;;23.17;3.30;;;;;;;7.20;100.00;101695.53;5070637;28;20099;-83
2022/11/10 02:01:17;;;;;;;18.80;2.50;;;;;;;7.16;100.00;101693.47;5071452;28;20270;-83
2022/11/10 02:03:53;;;;;;;21.40;2.88;;;;;;;7.16;100.00;101682.81;5052605;28;20043;-83
2022/11/10 02:06:21;;;;;;;16.40;2.35;;;;;;;7.16;100.00;101688.16;5068349;28;20028;-83
2022/11/10 02:08:47;;;;;;;16.48;2.90;;;;;;;7.16;100.00;101685.47;5071952;28;20426;-83
2022/11/10 02:11:13;;;;;;;10.07;2.00;;;;;;;7.12;100.00;101691.25;5053347;28;20021;-83
2022/11/10 02:13:39;;;;;;;21.67;2.63;;;;;;;7.20;100.00;101694.69;5070922;28;20279;-83
2022/11/10 02:16:04;;;;;;;19.05;3.03;;;;;;;7.19;100.00;101687.72;5071048;28;20048;-83
2022/11/10 02:18:29;;;;;;;17.55;2.28;;;;;;;7.17;100.00;101689.78;5071805;28;20444;-83
2022/11/10 02:20:55;;;;;;;16.03;2.60;;;;;;;7.18;100.00;101694.09;5069550;28;20099;-83
2022/11/10 02:23:35;;;;;;;20.10;2.20;;;;;;;7.18;100.00;101696.75;5071508;28;20054;-83
2022/11/10 02:26:04;;;;;;;17.42;2.83;;;;;;;7.20;100.00;101703.53;5070814;28;20021;-83
2022/11/10 02:28:34;;;;;;;17.98;2.67;;;;;;;7.19;100.00;101714.38;5070309;28;20028;-83
2022/11/10 02:31:00;;;;;;;14.05;2.30;;;;;;;7.18;100.00;101708.25;5070833;28;20124;-83
2022/11/10 02:33:29;;;;;;;16.80;2.67;;;;;;;7.17;100.00;101714.63;5069982;28;20068;-83
2022/11/10 02:35:54;;;;;;;18.52;2.78;;;;;;;7.16;100.00;101722.81;5068735;28;20029;-82
2022/11/10 02:38:19;;;;;;;14.83;2.17;;;;;;;7.13;100.00;101724.84;5068485;28;20027;-83
2022/11/10 02:40:45;;;;;;;23.67;2.77;;;;;;;7.12;100.00;101744.53;5070209;28;20299;-83
2022/11/10 02:43:15;;;;;;;21.50;2.63;;;;;;;7.15;100.00;101753.16;5036154;28;20075;-83
2022/11/10 02:45:44;;;;;;;12.55;2.10;;;;;;;7.08;100.00;101750.53;5070609;28;20587;-83
2022/11/10 02:48:10;;;;;;;15.50;2.38;;;;;;;7.10;100.00;101753.78;5068905;28;20111;-83
2022/11/10 02:50:35;;;;;;;15.18;2.65;;;;;;;7.08;100.00;101746.03;5070499;28;20377;-82
2022/11/10 02:53:01;;;;;;;20.33;2.73;;;;;;;7.01;100.00;101739.09;5068204;28;20039;-84
2022/11/10 02:55:26;;;;;;;20.40;2.50;;;;;;;7.04;100.00;101752.78;5054885;28;20033;-84
2022/11/10 02:57:51;;;;;;;21.23;2.53;;;;;;;7.03;100.00;101747.69;5070901;28;20025;-84
2022/11/10 03:00:17;;;;;;;18.23;2.40;;;;;;;7.11;100.00;101752.75;5069718;28;20033;-84
2022/11/10 03:02:43;;;;;;;15.70;2.40;;;;;;;7.04;100.00;101744.81;5069431;28;20128;-83
2022/11/10 03:05:09;;;;;;;19.77;2.42;;;;;;;7.05;100.00;101751.78;5050512;28;20017;-84
2022/11/10 03:07:40;;;;;;;14.73;2.27;;;;;;;7.02;100.00;101751.38;5070637;28;20108;-84
2022/11/10 03:10:06;;;;;;;17.20;2.58;;;;;;;7.01;100.00;101761.22;5070456;28;20070;-84
2022/11/10 03:12:32;;;;;;;17.75;2.45;;;;;;;6.97;100.00;101765.31;5070315;28;20059;-84
2022/11/10 03:14:57;;;;;;;17.10;2.30;;;;;;;6.89;100.00;101757.56;5070293;28;20038;-84
2022/11/10 03:17:24;;;;;;;14.40;2.37;;;;;;;6.96;100.00;101764.50;5071022;28;20032;-84
2022/11/10 03:19:50;;;;;;;16.27;2.72;;;;;;;6.96;100.00;101769.00;5067278;28;20024;-83
2022/11/10 03:22:15;;;;;;;21.47;2.47;;;;;;;6.90;100.00;101765.34;5068322;28;20028;-84
2022/11/10 03:24:40;;;;;;;17.03;2.30;;;;;;;6.89;100.00;101773.56;5070469;28;20027;-83
2022/11/10 03:27:06;;;;;;;27.47;2.70;;;;;;;6.95;100.00;101784.19;5070547;28;20025;-84
2022/11/10 03:29:31;;;;;;;16.60;2.40;;;;;;;6.88;100.00;101780.72;5068493;28;20344;-84
2022/11/10 03:31:56;;;;;;;22.17;2.30;;;;;;;6.84;100.00;101779.53;5069934;28;20021;-84
2022/11/10 03:34:22;;;;;;;15.00;2.20;;;;;;;6.82;100.00;101790.38;5065738;28;20036;-83
2022/11/10 03:36:47;;;;;;;14.10;2.23;;;;;;;6.78;100.00;101793.66;5069629;28;20032;-84
2022/11/10 03:39:13;;;;;;;18.65;2.30;;;;;;;6.76;100.00;101796.53;5070442;28;20039;-84
2022/11/10 03:41:38;;;;;;;14.87;2.20;;;;;;;6.77;100.00;101798.16;5064789;28;20031;-84
2022/11/10 03:44:03;;;;;;;23.30;2.40;;;;;;;6.75;100.00;101810.91;5065981;28;20037;-84
2022/11/10 03:46:31;;;;;;;22.80;2.60;;;;;;;6.74;100.00;101798.59;5064115;28;20028;-83
2022/11/10 03:48:56;;;;;;;19.23;2.72;;;;;;;6.67;100.00;101798.59;5069662;28;20052;-84
2022/11/10 03:51:22;;;;;;;13.77;2.00;;;;;;;6.71;100.00;101815.00;5055340;28;20059;-84
2022/11/10 03:53:47;;;;;;;22.07;3.03;;;;;;;6.74;100.00;101821.75;5043973;28;20020;-84
2022/11/10 03:56:13;;;;;;;23.17;2.53;;;;;;;6.62;100.00;101814.41;5070515;28;20381;-84
2022/11/10 03:58:38;;;;;;;20.90;2.63;;;;;;;6.69;100.00;101816.22;5069634;28;20039;-84
2022/11/10 04:01:03;;;;;;;16.87;2.60;;;;;;;6.65;100.00;101821.13;5069794;28;20088;-84
2022/11/10 04:03:28;;;;;;;25.73;2.67;;;;;;;6.70;100.00;101829.34;5069256;28;20035;-84
2022/11/10 04:16:52;;;;;;;21.25;2.80;;;;;;;6.51;100.00;101836.31;5069234;28;20036;-84
2022/11/10 04:19:17;;;;;;;17.55;2.25;;;;;;;6.50;100.00;101840.81;5073301;28;20054;-83
2022/11/10 04:21:43;;;;;;;18.77;3.00;;;;;;;6.55;100.00;101858.03;5073694;28;20028;-84
2022/11/10 04:24:08;;;;;;;21.97;2.27;;;;;;;6.50;100.00;101856.81;5072363;28;20074;-83
2022/11/10 04:26:37;;;;;;;21.73;2.90;;;;;;;6.46;100.00;101847.56;5053537;28;20514;-84
2022/11/10 04:29:05;;;;;;;19.77;2.57;;;;;;;6.50;100.00;101854.13;5073991;28;20032;-84
2022/11/10 04:31:36;;;;;;;16.47;2.77;;;;;;;6.52;100.00;101859.25;5073422;28;20274;-83
2022/11/10 04:34:02;;;;;;;23.17;2.78;;;;;;;6.51;100.00;101871.75;5048089;28;20263;-83
2022/11/10 04:36:30;;;;;;;20.90;3.25;;;;;;;6.49;100.00;101867.63;5067408;28;20029;-83
2022/11/10 04:38:56;;;;;;;17.35;2.55;;;;;;;6.44;100.00;101868.25;5055798;28;20028;-83
2022/11/10 04:41:21;;;;;;;28.30;2.83;;;;;;;6.47;100.00;101873.19;5052194;28;20411;-83
2022/11/10 04:43:47;;;;;;;18.77;2.00;;;;;;;6.44;100.00;101878.91;5072521;28;20029;-84
2022/11/10 04:46:26;;;;;;;20.25;2.80;;;;;;;6.46;100.00;101884.06;5071447;28;20033;-84
2022/11/10 04:48:53;;;;;;;19.47;2.97;;;;;;;6.41;100.00;101900.63;5073642;28;20040;-83
2022/11/10 04:51:21;;;;;;;22.17;2.80;;;;;;;6.39;100.00;101900.00;5072181;28;20298;-83
2022/11/10 04:53:46;;;;;;;25.75;2.65;;;;;;;6.28;100.00;101887.28;5073360;28;20036;-83
2022/11/10 04:56:15;;;;;;;19.77;2.57;;;;;;;6.39;100.00;101900.00;5072145;28;20028;-83
2022/11/10 04:58:44;;;;;;;26.63;2.97;;;;;;;6.36;100.00;101906.56;5071074;28;20290;-83
2022/11/10 05:01:15;;;;;;;17.35;2.28;;;;;;;6.26;100.00;101902.66;5072873;28;20056;-84
2022/11/10 05:03:41;;;;;;;27.23;2.72;;;;;;;6.33;100.00;101919.47;5056019;28;20122;-83
2022/11/10 05:06:06;;;;;;;18.45;2.50;;;;;;;6.26;100.00;101905.31;5071559;28;20028;-83
2022/11/10 05:08:32;;;;;;;17.13;2.90;;;;;;;6.28;100.00;101919.25;5072328;28;20024;-83
2022/11/10 05:10:57;;;;;;;27.30;2.50;;;;;;;6.25;100.00;101915.16;5072534;28;20274;-83
2022/11/10 05:13:23;;;;;;;19.73;2.20;;;;;;;6.20;100.00;101910.44;5054087;28;20036;-83
2022/11/10 05:15:48;;;;;;;21.77;2.33;;;;;;;6.19;100.00;101922.09;5070301;28;20024;-83
2022/11/10 05:18:13;;;;;;;23.30;2.47;;;;;;;6.26;100.00;101931.94;5072798;28;20032;-83
2022/11/10 05:20:40;;;;;;;21.10;2.37;;;;;;;6.18;100.00;101927.63;5071518;28;20291;-83
2022/11/10 05:25:49;;;;;;;19.83;2.33;;;;;;;6.24;100.00;101937.47;5072280;28;20139;-84
2022/11/10 05:28:15;;;;;;;20.60;2.80;;;;;;;6.26;100.00;101934.59;5072100;28;20690;-83
2022/11/10 05:30:42;;;;;;;23.33;3.08;;;;;;;6.30;100.00;101936.63;5069269;28;20047;-83
2022/11/10 05:33:08;;;;;;;15.15;2.53;;;;;;;6.33;100.00;101930.09;5072813;28;20031;-83
2022/11/10 05:35:34;;;;;;;20.73;2.97;;;;;;;6.36;100.00;101929.72;5071372;28;20033;-84
2022/11/10 05:38:00;;;;;;;17.63;2.30;;;;;;;6.32;100.00;101926.63;5070967;28;20029;-83
2022/11/10 05:40:25;;;;;;;23.13;3.10;;;;;;;6.30;100.00;101927.84;5068326;28;20017;-82
2022/11/10 05:42:54;;;;;;;19.65;2.40;;;;;;;6.29;100.00;101923.53;5068692;28;20023;-83
2022/11/10 05:45:21;;;;;;;24.50;2.97;;;;;;;6.30;100.00;101919.84;5070971;28;20032;-83
2022/11/10 05:47:48;;;;;;;22.13;3.00;;;;;;;6.30;100.00;101927.84;5066750;28;20025;-83
2022/11/10 05:50:13;;;;;;;24.40;3.10;;;;;;;6.29;100.00;101936.84;5053729;28;20123;-82
2022/11/10 05:52:43;;;;;;;21.03;2.50;;;;;;;6.24;100.00;101945.44;5070010;28;20575;-83
2022/11/10 05:55:08;;;;;;;24.23;3.33;;;;;;;6.28;100.00;101956.50;5069127;28;20068;-83
2022/11/10 05:57:33;;;;;;;20.40;2.60;;;;;;;6.19;100.00;101956.72;5071877;28;20503;-83
2022/11/10 06:10:23;;;;;;;22.88;2.42;;;;;;;6.16;100.00;101978.38;5540655;22;20061;-83
2022/11/10 06:12:50;;;;;;;24.77;2.65;;;;;;;6.12;100.00;101978.97;5051308;28;20826;-83
2022/11/10 06:15:17;;;;;;;27.80;2.70;;;;;;;6.14;100.00;101991.06;5050725;28;20029;-83
2022/11/10 06:17:42;;;;;;;20.08;2.50;;;;;;;6.08;100.00;101985.72;5032549;28;20021;-82
2022/11/10 06:20:12;;;;;;;17.63;2.70;;;;;;;6.06;100.00;101981.44;5049086;28;20480;-82
2022/11/10 06:22:38;;;;;;;18.25;2.65;;;;;;;6.00;100.00;101984.88;5051201;28;20053;-82
2022/11/10 06:25:03;;;;;;;24.70;2.83;;;;;;;5.98;100.00;101980.75;5051854;28;20060;-83
2022/11/10 06:27:29;;;;;;;19.97;2.67;;;;;;;6.00;100.00;101992.84;5032908;28;20500;-82
2022/11/10 06:29:54;;;;;;;27.88;3.03;;;;;;;6.05;100.00;101976.28;5049558;28;20512;-82
2022/11/10 06:32:19;;;;;;;23.10;3.20;;;;;;;6.09;100.00;101974.88;5032985;28;20024;-82
2022/11/10 06:34:45;;;;;;;28.97;3.33;;;;;;;6.14;100.00;101993.72;5050266;28;20566;-82
2022/11/10 06:37:10;;;;;;;17.97;2.90;;;;;;;6.14;100.00;101996.41;5050483;28;20032;-82
2022/11/10 06:39:35;;;;;;;17.83;2.97;;;;;;;6.10;100.00;102007.66;5051267;28;20031;-82
2022/11/10 06:42:00;;;;;;;19.90;2.63;;;;;;;6.11;100.00;102014.63;5049469;28;20029;-82
2022/11/10 06:44:28;;;;;;;18.47;2.80;;;;;;;6.10;100.00;102011.13;5048341;28;20488;-83
2022/11/10 06:46:53;;;;;;;21.13;3.28;;;;;;;6.12;100.00;102014.41;5046797;28;20028;-84
2022/11/10 06:49:19;;;;;;;16.33;2.87;;;;;;;6.14;100.00;102032.81;5050463;28;20037;-83
2022/11/10 06:51:44;;;;;;;20.58;3.05;;;;;;;6.11;100.00;102028.72;5048911;28;20032;-84
2022/11/10 06:54:09;;;;;;;23.03;3.27;;;;;;;6.05;100.00;102021.53;5050130;28;20058;-86
2022/11/10 06:56:35;;;;;;;18.23;3.00;;;;;;;6.18;100.00;102040.22;5032565;28;20039;-84
2022/11/10 06:59:00;;;;;;;24.40;3.50;;;;;;;6.14;100.00;102044.31;5050876;28;20025;-84
2022/11/10 07:01:25;;;;;;;32.80;3.37;;;;;;;6.16;100.00;102052.91;5043528;28;20113;-83
2022/11/10 07:03:55;;;;;;;20.57;2.43;;;;;;;6.15;100.00;102050.44;5049930;28;20031;-83
2022/11/10 07:06:21;;;;;;;24.95;3.20;;;;;;;6.26;100.00;102043.72;5043016;28;20036;-83
2022/11/10 07:08:47;;;;;;;27.33;3.37;;;;;;;6.29;100.00;102048.66;5047675;28;20048;-84
2022/11/10 07:11:14;;;;;;;21.88;2.92;;;;;;;6.33;100.00;102060.56;5048791;28;20063;-84
2022/11/10 07:13:41;;;;;;;22.35;3.50;;;;;;;6.32;100.00;102057.06;5048019;28;20127;-83
2022/11/10 07:16:07;;;;;;;20.08;3.65;;;;;;;6.42;100.00;102062.00;5044664;28;20024;-84
2022/11/10 07:18:39;;;;;;;28.67;4.35;;;;;;;6.45;100.00;102077.59;5046949;28;20035;-84
2022/11/10 07:21:10;;;;;;;30.42;3.38;;;;;;;6.44;100.00;102073.28;5048697;28;20021;-84
2022/11/10 07:23:35;;;;;;;28.20;3.87;;;;;;;6.50;100.00;102088.47;5046940;28;20087;-84
2022/11/10 07:26:01;;;;;;;29.63;3.40;;;;;;;6.58;100.00;102079.50;5048062;28;20284;-84
2022/11/10 07:28:27;;;;;;;20.87;3.50;;;;;;;6.52;100.00;102082.94;5045002;28;20025;-84
2022/11/10 07:30:54;;;;;;;20.50;3.53;;;;;;;6.61;100.00;102102.22;5048183;28;20028;-85
2022/11/10 07:33:20;;;;;;;32.83;3.27;;;;;;;6.61;100.00;102104.88;5030149;28;20104;-85
2022/11/10 07:35:57;;;;;;;28.37;4.57;;;;;;;6.58;100.00;102098.13;5047699;28;20394;-85
2022/11/10 07:38:23;;;;;;;22.33;3.60;;;;;;;6.63;100.00;102111.69;5046811;28;20043;-85
2022/11/10 07:41:00;;;;;;;21.53;2.77;;;;;;;6.67;100.00;102117.41;5029909;28;20037;-84
2022/11/10 07:43:29;;;;;;;19.13;3.42;;;;;;;6.79;100.00;102104.34;5042047;28;20589;-88
2022/11/10 07:46:00;;;;;;;20.23;2.70;;;;;;;6.77;100.00;102093.88;5047405;28;20029;-89
2022/11/10 07:48:25;;;;;;;26.45;2.97;;;;;;;6.86;100.00;102102.50;5049339;28;20132;-88
2022/11/10 07:50:51;;;;;;;22.80;2.77;;;;;;;6.86;100.00;102099.03;5043121;28;20524;-87
2022/11/10 07:53:18;;;;;;;26.20;3.58;;;;;;;6.99;100.00;102114.22;5045713;28;20025;-85
2022/11/10 07:55:45;;;;;;;26.92;3.33;;;;;;;7.03;100.00;102113.63;5050789;28;20063;-87
2022/11/10 07:58:12;;;;;;;28.65;3.42;;;;;;;6.99;100.00;102104.38;5049123;28;20025;-87
2022/11/10 08:00:38;;;;;;;31.30;3.00;;;;;;;7.10;100.00;102125.13;5044311;28;20029;-87
2022/11/10 08:03:10;;;;;;;28.40;3.85;;;;;;;7.18;100.00;102129.44;5061860;28;20021;-87
2022/11/10 08:05:36;;;;;;;18.67;2.90;;;;;;;7.22;100.00;102135.19;5041847;28;20067;-87
2022/11/10 08:08:02;;;;;;;32.73;3.57;;;;;;;7.27;100.00;102133.53;5050344;28;20021;-89
2022/11/10 08:10:28;;;;;;;22.75;2.97;;;;;;;7.31;100.00;102128.63;5029417;28;20500;-89
2022/11/10 08:12:56;;;;;;;12.68;2.67;;;;;;;7.39;100.00;102144.44;5050967;28;20033;-89
2022/11/10 08:15:22;;;;;;;20.33;2.63;;;;;;;7.43;100.00;102153.66;5054144;28;20027;-88
2022/11/10 08:17:56;;;;;;;21.33;3.43;;;;;;;7.52;100.00;102156.13;5053114;28;20813;-89
2022/11/10 08:20:21;;;;;;;20.08;2.83;;;;;;;7.58;100.00;102160.66;5050760;28;20040;-89
2022/11/10 08:22:48;;;;;;;29.40;3.00;;;;;;;7.66;100.00;102173.81;5051044;28;20029;-90
2022/11/10 08:25:14;;;;;;;18.73;3.13;;;;;;;7.68;100.00;102160.25;5053047;28;20303;-90
2022/11/10 08:27:39;;;;;;;17.50;3.40;;;;;;;7.67;100.00;102146.06;5050843;28;20021;-90
2022/11/10 08:30:05;;;;;;;23.57;2.90;;;;;;;7.79;100.00;102170.28;5051914;28;20314;-90
2022/11/10 08:32:31;;;;;;;22.33;2.72;;;;;;;7.80;100.00;102168.47;5037424;28;20090;-89
2022/11/10 08:34:57;;;;;;;16.73;2.60;;;;;;;7.85;100.00;102168.66;5052283;28;20610;-90
2022/11/10 08:37:24;;;;;;;16.93;2.77;;;;;;;7.93;100.00;102178.31;5052865;28;20378;-88
2022/11/10 08:39:50;;;;;;;15.30;2.37;;;;;;;7.98;100.00;102174.00;5058698;28;20040;-89
2022/11/10 08:42:15;;;;;;;20.20;2.97;;;;;;;8.06;100.00;102174.78;5058654;28;20303;-87
2022/11/10 08:44:42;;;;;;;21.63;2.97;;;;;;;8.01;100.00;102160.22;5057298;28;20227;-88
2022/11/10 08:47:10;;;;;;;20.85;2.78;;;;;;;8.15;100.00;102171.69;5059895;28;20031;-91
2022/11/10 08:49:35;;;;;;;22.30;3.45;;;;;;;8.26;100.00;102178.25;5053844;28;20620;-91
2022/11/10 08:52:02;;;;;;;26.37;2.63;;;;;;;8.28;100.00;102170.84;5053157;28;20070;-91
2022/11/10 08:54:30;;;;;;;18.83;2.67;;;;;;;8.32;100.00;102177.41;5052933;28;20824;-90
2022/11/10 08:56:55;;;;;;;23.50;3.23;;;;;;;8.41;100.00;102186.03;5031407;28;20037;-92
2022/11/10 08:59:21;;;;;;;16.43;2.57;;;;;;;8.52;100.00;102186.41;5034150;28;20315;-90
2022/11/10 09:01:48;;;;;;;29.57;2.97;;;;;;;8.42;100.00;102166.28;5015574;28;20029;-91
2022/11/10 09:04:14;;;;;;;18.48;2.42;;;;;;;8.61;100.00;102185.97;5050452;28;20029;-91
2022/11/10 09:06:39;;;;;;;17.33;2.30;;;;;;;8.65;100.00;102199.75;5051996;28;20061;-92
2022/11/10 09:09:06;;;;;;;22.07;2.93;;;;;;;8.74;100.00;102209.16;5057433;28;20088;-90
2022/11/10 09:11:31;;;;;;;23.48;2.55;;;;;;;8.79;100.00;102219.22;5051486;28;20021;-89
2022/11/10 09:13:56;;;;;;;19.77;2.80;;;;;;;8.83;100.00;102208.94;5041870;28;20132;-89
2022/11/10 09:16:22;;;;;;;21.90;2.60;;;;;;;8.86;100.00;102209.31;5039065;28;20025;-89
2022/11/10 09:18:47;;;;;;;19.33;2.60;;;;;;;8.90;100.00;102212.38;5061417;28;20328;-92
2022/11/10 09:21:14;;;;;;;23.73;2.70;;;;;;;9.01;100.00;102224.28;5063829;28;20037;-92
2022/11/10 09:23:41;;;;;;;20.27;2.30;;;;;;;9.03;100.00;102224.88;5065223;28;20029;-92
2022/11/10 09:26:06;;;;;;;16.65;2.25;;;;;;;9.10;100.00;102225.69;5062499;28;20029;-92
2022/11/10 09:28:32;;;;;;;26.70;3.20;;;;;;;9.12;100.00;102228.97;5047198;28;20044;-90
2022/11/10 09:30:57;;;;;;;21.00;2.77;;;;;;;9.16;100.00;102216.78;5060711;28;20039;-90
2022/11/10 09:33:23;;;;;;;15.82;2.60;;;;;;;9.23;100.00;102232.78;5053922;28;20032;-91
2022/11/10 09:35:48;;;;;;;15.20;2.80;;;;;;;9.28;100.00;102221.47;5055884;28;20027;-91
2022/11/10 09:38:16;;;;;;;19.03;2.27;;;;;;;9.24;100.00;102215.72;5056883;28;20036;-92
2022/11/10 09:40:50;;;;;;;20.15;2.60;;;;;;;9.39;100.00;102232.31;5032577;28;20028;-89
2022/11/10 09:43:42;;;;;;;16.48;2.35;;;;;;;9.46;100.00;102229.59;5057426;28;20045;-90
2022/11/10 09:46:26;;;;;;;15.45;2.75;;;;;;;9.49;100.00;102226.50;5054919;28;20044;-90
2022/11/10 09:49:13;;;;;;;21.97;2.87;;;;;;;9.60;100.00;102237.53;5055129;28;20021;-90
2022/11/10 09:51:41;;;;;;;14.83;2.47;;;;;;;9.70;100.00;102248.56;5054258;28;20358;-89
2022/11/10 09:54:29;;;;;;;15.52;2.38;;;;;;;9.72;100.00;102238.47;5053080;28;20472;-89
2022/11/10 09:56:59;;;;;;;17.92;2.53;;;;;;;9.74;100.00;102227.56;5054426;28;20488;-89
2022/11/10 09:59:27;;;;;;;17.17;2.40;;;;;;;9.81;100.00;102229.13;5036735;28;20037;-89
2022/11/10 10:02:02;;;;;;;11.13;2.50;;;;;;;9.92;100.00;102227.59;5033622;28;20106;-89
2022/11/10 10:04:42;;;;;;;15.57;2.90;;;;;;;9.96;100.00;102225.31;5056614;28;20036;-89
2022/11/10 10:07:42;;;;;;;16.63;2.30;;;;;;;10.07;100.00;102243.31;5056398;28;20032;-88
2022/11/10 10:10:13;;;;;;;17.63;2.25;;;;;;;10.15;100.00;102232.34;5028321;28;20053;-89
2022/11/10 10:12:56;;;;;;;17.77;2.78;;;;;;;10.18;100.00;102232.94;5070765;28;20029;-89
2022/11/10 10:15:24;;;;;;;12.73;2.03;;;;;;;10.31;100.00;102248.88;5053539;28;20052;-89
2022/11/10 10:17:52;;;;;;;14.60;2.43;;;;;;;10.38;100.00;102249.69;5052826;28;20294;-89
2022/11/10 10:20:48;;;;;;;22.45;2.67;;;;;;;10.47;100.00;102254.75;5053580;28;20032;-89
2022/11/10 10:23:21;;;;;;;19.60;2.67;;;;;;;10.52;100.00;102249.53;5052511;28;20053;-89
2022/11/10 10:25:48;;;;;;;11.02;2.35;;;;;;;10.65;100.00;102259.31;5052887;28;20060;-89
2022/11/10 10:28:22;;;;;;;11.20;2.20;;;;;;;10.75;100.00;102271.16;5051522;28;20075;-89
2022/11/10 10:30:48;;;;;;;16.83;2.53;;;;;;;10.61;100.00;102229.44;5033153;28;20452;-89
2022/11/10 10:33:16;;;;;;;16.53;2.37;;;;;;;10.94;100.00;102276.50;5034599;28;20070;-89
2022/11/10 10:35:43;;;;;;;12.98;2.00;;;;;;;10.99;100.00;102271.25;5053754;28;20460;-89
2022/11/10 10:38:38;;;;;;;11.52;2.17;;;;;;;11.05;100.00;102277.59;5052902;28;20024;-90
2022/11/10 10:41:18;;;;;;;16.02;2.28;;;;;;;11.06;100.00;102290.78;5051485;28;20115;-90
2022/11/10 10:43:54;;;;;;;21.23;2.33;;;;;;;11.10;100.00;102279.63;5050524;28;20060;-90
2022/11/10 10:46:25;;;;;;;16.20;2.15;;;;;;;11.19;100.00;102295.19;5036291;28;20029;-91
2022/11/10 10:49:19;;;;;;;17.70;2.23;;;;;;;11.30;100.00;102306.19;5017324;28;20684;-91
2022/11/10 10:51:45;;;;;;;12.83;1.83;;;;;;;11.34;100.00;102313.53;5027689;28;20291;-89
2022/11/10 10:54:26;;;;;;;8.93;1.70;;;;;;;11.40;100.00;102305.66;5015893;28;20025;-90
2022/11/10 10:57:05;;;;;;;15.35;2.10;;;;;;;11.51;100.00;102312.91;5033045;28;20117;-89
2022/11/10 10:59:31;;;;;;;11.48;2.15;;;;;;;11.56;100.00;102313.06;5045078;28;20059;-91
2022/11/10 11:01:56;;;;;;;8.95;1.60;;;;;;;11.69;100.00;102324.66;5033881;28;20029;-90
2022/11/10 11:04:29;;;;;;;14.60;1.93;;;;;;;11.69;100.00;102295.13;5034886;28;20482;-90
2022/11/10 11:07:00;;;;;;;14.88;2.08;;;;;;;11.86;100.00;102308.72;5052123;28;20060;-89
2022/11/10 11:09:28;;;;;;;19.30;2.03;;;;;;;11.94;100.00;102303.81;5051961;28;20033;-90
2022/11/10 11:12:05;;;;;;;14.02;2.00;;;;;;;12.06;100.00;102311.94;5051355;28;20112;-90
2022/11/10 11:14:31;;;;;;;10.95;2.08;;;;;;;12.13;100.00;102308.34;5052313;28;20104;-90
2022/11/10 11:17:01;;;;;;;7.47;1.57;;;;;;;12.25;100.00;102312.66;5053981;28;20069;-89
2022/11/10 11:19:28;;;;;;;13.87;1.77;;;;;;;12.27;100.00;102310.56;5062452;28;20279;-90
2022/11/10 11:22:28;;;;;;;12.18;1.98;;;;;;;12.34;100.00;102309.63;5060035;28;20027;-91
2022/11/10 11:25:17;;;;;;;13.73;1.60;;;;;;;12.41;100.00;102302.28;5047645;28;20049;-91
2022/11/10 11:28:25;;;;;;;13.88;1.80;;;;;;;12.58;100.00;102315.81;5061569;28;20112;-89
2022/11/10 11:31:09;;;;;;;13.57;1.67;;;;;;;12.71;100.00;102301.31;5054182;28;20021;-91
2022/11/10 11:33:40;;;;;;;12.63;1.63;;;;;;;12.86;100.00;102307.00;5073677;28;20044;-91
2022/11/10 11:36:24;;;;;;;16.58;2.20;;;;;;;13.00;97.04;102322.88;5073735;28;20036;-91
2022/11/10 11:38:58;;;;;;;9.88;1.67;;;;;;;13.15;96.33;102325.88;5061305;28;20029;-92
2022/11/10 11:41:54;;;;;;;9.93;1.67;;;;;;;13.33;93.82;102332.97;5055731;28;20081;-93
2022/11/10 11:44:40;;;;;;;12.13;1.67;;;;;;;13.46;93.95;102347.25;5053108;28;20033;-91
2022/11/10 11:47:33;;;;;;;16.77;1.70;;;;;;;13.45;91.11;102346.44;5033218;28;20287;-92
2022/11/10 11:50:08;;;;;;;8.25;2.22;;;;;;;13.41;91.66;102345.28;5032613;28;20033;-92
2022/11/10 11:52:50;;;;;;;9.60;1.92;;;;;;;13.33;90.46;102345.59;5035260;28;20100;-93